Terminal Aerodrome Forecast
Issued by NWS

Home | Current Version | Previous Version | Text Only | Print | Product List | Glossary On
Versions: 1 2 3 4 5 6 7 8 9 10 11 12 13 14 15 16
000
FTUS41 KCAR 281700 RRA
TAFPQI
TAF
KPQI 281750Z 2818/2918 14008KT P6SM OVC025
     FM282000 13010KT 5SM -RA VCTS OVC015CB
     FM290200 13010G20KT 3SM -SHRA OVC007
     FM290400 15009KT 3SM -SHRA BR OVC003
     FM291000 18007KT 3SM -SHRA BR OVC006
     FM291300 20007KT P6SM OVC015
     FM291500 21009KT P6SM BKN025
      AMD LTD TO CLD VIS AND WIND=

USA.gov is the U.S. government's official web portal to all federal, state and local government web resources and services.